createdAt,value
2023-11-27T00:02:08.086Z,98044.84
2023-11-27T00:04:35.607Z,98054.38
2023-11-27T00:07:02.741Z,98045.59
2023-11-27T00:09:30.203Z,98050.75
2023-11-27T00:11:57.158Z,98048.28
2023-11-27T00:14:24.590Z,98045.63
2023-11-27T00:16:51.582Z,98038.50
2023-11-27T00:19:19.038Z,98046.31
2023-11-27T00:21:46.137Z,98037.66
2023-11-27T00:24:13.868Z,98033.22
2023-11-27T00:26:40.861Z,98034.25
2023-11-27T00:29:08.613Z,98031.59
2023-11-27T00:31:36.116Z,98031.53
2023-11-27T00:34:04.435Z,98030.59
2023-11-27T00:36:31.463Z,98043.56
2023-11-27T00:38:59.231Z,98042.63
2023-11-27T00:41:26.227Z,98041.81
2023-11-27T00:43:53.607Z,98040.91
2023-11-27T00:46:20.782Z,98033.88
2023-11-27T00:48:48.381Z,98034.72
2023-11-27T00:51:15.376Z,98028.59
2023-11-27T00:53:42.681Z,98020.75
2023-11-27T00:56:10.078Z,98014.78
2023-11-27T00:58:37.438Z,98015.53
2023-11-27T01:01:06.374Z,98009.31
2023-11-27T01:03:33.826Z,98009.25
2023-11-27T01:06:01.108Z,98006.56
2023-11-27T01:08:28.497Z,98004.00
2023-11-27T01:10:55.528Z,98014.34
2023-11-27T01:13:22.727Z,98014.34
2023-11-27T01:15:49.781Z,98022.19
2023-11-27T01:18:17.014Z,98013.59
2023-11-27T01:20:44.159Z,98004.84
2023-11-27T01:23:11.349Z,98001.34
2023-11-27T01:25:38.366Z,97994.38
2023-11-27T01:28:06.201Z,97987.38
2023-11-27T01:30:33.580Z,97991.69
2023-11-27T01:33:00.993Z,97988.16
2023-11-27T01:35:28.033Z,97986.38
2023-11-27T01:37:55.200Z,97983.81
2023-11-27T01:40:23.502Z,97989.09
2023-11-27T01:42:50.815Z,97989.09
2023-11-27T01:45:17.791Z,97996.91
2023-11-27T01:47:45.177Z,98002.13
2023-11-27T01:50:12.877Z,97988.28
2023-11-27T01:52:41.134Z,97984.91
2023-11-27T01:55:09.570Z,97982.63
2023-11-27T01:57:37.411Z,97978.13
2023-11-27T02:00:08.922Z,97975.41
2023-11-27T02:02:36.278Z,97977.13
2023-11-27T02:05:03.877Z,97975.34
2023-11-27T02:07:31.111Z,97966.63
2023-11-27T02:09:58.105Z,97961.31
2023-11-27T02:12:25.408Z,97959.69
2023-11-27T02:14:53.855Z,97966.59
2023-11-27T02:17:21.196Z,97966.66
2023-11-27T02:19:48.098Z,97963.19
2023-11-27T02:22:15.329Z,97964.94
2023-11-27T02:24:43.512Z,97960.78
2023-11-27T02:27:10.871Z,97973.88
2023-11-27T02:29:37.973Z,97958.22
2023-11-27T02:32:05.955Z,97962.69
2023-11-27T02:34:33.138Z,97960.06
2023-11-27T02:37:00.478Z,97954.84
2023-11-27T02:39:27.500Z,97958.34
2023-11-27T02:41:54.788Z,97961.84
2023-11-27T02:44:21.878Z,97949.75
2023-11-27T02:46:49.102Z,97957.50
2023-11-27T02:49:16.108Z,97956.63
2023-11-27T02:51:43.360Z,97951.38
2023-11-27T02:54:11.429Z,97947.09
2023-11-27T02:56:38.724Z,97946.31
2023-11-27T02:59:05.725Z,97947.06
2023-11-27T03:01:33.000Z,97951.56
2023-11-27T03:04:00.344Z,97948.91
2023-11-27T03:06:27.690Z,97943.69
2023-11-27T03:08:54.666Z,97941.91
2023-11-27T03:11:21.889Z,97942.84
2023-11-27T03:13:49.152Z,97928.03
2023-11-27T03:16:16.676Z,97930.59
2023-11-27T03:18:43.990Z,97928.78
2023-11-27T03:21:23.858Z,97922.75
2023-11-27T03:23:51.091Z,97930.50
2023-11-27T03:26:19.650Z,97927.84
2023-11-27T03:28:46.844Z,97919.09
2023-11-27T03:31:14.116Z,97917.38
2023-11-27T03:33:41.329Z,97915.72
2023-11-27T03:36:09.042Z,97907.84
2023-11-27T03:38:36.357Z,97906.03
2023-11-27T03:41:05.044Z,97911.22
2023-11-27T03:43:33.386Z,97912.97
2023-11-27T03:46:01.482Z,97913.03
2023-11-27T03:48:28.546Z,97909.56
2023-11-27T03:50:55.889Z,97912.28
2023-11-27T03:53:22.808Z,97902.81
2023-11-27T03:55:50.222Z,97899.25
2023-11-27T03:58:17.184Z,97904.47
2023-11-27T04:00:44.352Z,97904.47
2023-11-27T04:03:11.250Z,97897.50
2023-11-27T04:05:38.667Z,97903.59
2023-11-27T04:08:05.813Z,97900.28
2023-11-27T04:10:33.011Z,97904.72
2023-11-27T04:12:59.992Z,97908.28
2023-11-27T04:15:27.232Z,97904.66
2023-11-27T04:17:54.248Z,97895.09
2023-11-27T04:20:21.468Z,97899.31
2023-11-27T04:22:48.448Z,97897.53
2023-11-27T04:25:15.832Z,97898.38
2023-11-27T04:27:42.891Z,97896.56
2023-11-27T04:30:10.663Z,97887.06
2023-11-27T04:32:38.071Z,97893.94
2023-11-27T04:35:05.802Z,97886.88
2023-11-27T04:37:33.345Z,97885.19
2023-11-27T04:40:00.602Z,97883.41
2023-11-27T04:42:27.623Z,97880.69
2023-11-27T04:44:54.975Z,97880.72
2023-11-27T04:47:22.023Z,97877.22
2023-11-27T04:49:49.328Z,97865.94
2023-11-27T04:52:16.395Z,97874.56
2023-11-27T04:54:43.678Z,97865.91
2023-11-27T04:57:11.483Z,97866.75
2023-11-27T04:59:38.754Z,97859.81
2023-11-27T05:02:06.199Z,97856.34
2023-11-27T05:04:35.089Z,97860.75
2023-11-27T05:07:02.288Z,97857.34
2023-11-27T05:09:29.739Z,97856.38
2023-11-27T05:11:56.746Z,97859.09
2023-11-27T05:14:23.584Z,97847.84
2023-11-27T05:16:50.869Z,97855.78
2023-11-27T05:19:17.847Z,97858.34
2023-11-27T05:21:45.254Z,97851.31
2023-11-27T05:24:12.177Z,97853.16
2023-11-27T05:26:39.491Z,97849.81
2023-11-27T05:29:06.394Z,97846.41
2023-11-27T05:31:33.667Z,97842.94
2023-11-27T05:34:00.604Z,97850.78
2023-11-27T05:36:28.049Z,97850.78
2023-11-27T05:38:54.996Z,97847.31
2023-11-27T05:41:23.437Z,97853.34
2023-11-27T05:43:50.600Z,97852.41
2023-11-27T05:46:19.486Z,97844.66
2023-11-27T05:48:46.592Z,97850.78
2023-11-27T05:51:13.892Z,97849.72
2023-11-27T05:53:40.826Z,97850.56
2023-11-27T05:56:09.910Z,97846.31
2023-11-27T05:58:36.951Z,97832.44
2023-11-27T06:01:04.319Z,97831.47
2023-11-27T06:03:31.371Z,97833.34
2023-11-27T06:05:58.725Z,97835.09
2023-11-27T06:08:26.351Z,97829.06
2023-11-27T06:10:53.600Z,97829.00
2023-11-27T06:13:21.229Z,97832.50
2023-11-27T06:15:48.601Z,97825.41
2023-11-27T06:18:15.777Z,97830.63
2023-11-27T06:20:43.226Z,97829.66
2023-11-27T06:23:10.267Z,97836.78
2023-11-27T06:25:37.521Z,97836.72
2023-11-27T06:28:04.924Z,97842.78
2023-11-27T06:30:32.142Z,97842.72
2023-11-27T06:32:59.503Z,97836.66
2023-11-27T06:35:26.779Z,97842.09
2023-11-27T06:37:53.803Z,97842.84
2023-11-27T06:40:26.742Z,97835.16
2023-11-27T06:42:58.006Z,97840.31
2023-11-27T06:45:25.307Z,97833.34
2023-11-27T06:47:52.270Z,97835.09
2023-11-27T06:50:19.547Z,97830.59
2023-11-27T06:52:46.808Z,97834.88
2023-11-27T06:55:14.535Z,97830.53
2023-11-27T06:57:42.784Z,97830.59
2023-11-27T07:00:12.174Z,97832.28
2023-11-27T07:02:39.485Z,97836.63
2023-11-27T07:05:07.230Z,97833.91
2023-11-27T07:07:34.171Z,97834.88
2023-11-27T07:10:01.650Z,97828.78
2023-11-27T07:12:28.662Z,97827.06
2023-11-27T07:14:55.842Z,97828.78
2023-11-27T07:17:23.305Z,97827.88
2023-11-27T07:19:50.587Z,97828.72
2023-11-27T07:22:17.799Z,97833.09
2023-11-27T07:24:45.088Z,97823.59
2023-11-27T07:27:12.460Z,97831.31
2023-11-27T07:29:39.638Z,97823.38
2023-11-27T07:32:07.137Z,97829.44
2023-11-27T07:34:34.501Z,97818.06
2023-11-27T07:37:01.568Z,97814.47
2023-11-27T07:39:29.948Z,97810.09
2023-11-27T07:41:56.898Z,97814.44
2023-11-27T07:44:26.432Z,97812.66
2023-11-27T07:46:53.566Z,97814.38
2023-11-27T07:49:21.066Z,97810.97
2023-11-27T07:51:48.059Z,97811.72
2023-11-27T07:54:15.256Z,97804.78
2023-11-27T07:56:42.204Z,97812.50
2023-11-27T07:59:10.685Z,97808.97
2023-11-27T08:01:38.616Z,97808.19
2023-11-27T08:04:06.207Z,97807.28
2023-11-27T08:06:33.279Z,97808.94
2023-11-27T08:09:00.692Z,97813.31
2023-11-27T08:11:34.556Z,97803.75
2023-11-27T08:14:02.317Z,97808.00
2023-11-27T08:16:30.650Z,97803.72
2023-11-27T08:18:58.333Z,97806.19
2023-11-27T08:21:26.205Z,97801.66
2023-11-27T08:23:55.456Z,97805.00
2023-11-27T08:26:23.465Z,97800.84
2023-11-27T08:28:50.753Z,97804.06
2023-11-27T08:31:21.640Z,97798.59
2023-11-27T08:33:50.103Z,97796.97
2023-11-27T08:36:25.872Z,97804.53
2023-11-27T08:38:59.145Z,97800.19
2023-11-27T08:41:26.105Z,97799.47
2023-11-27T08:43:53.436Z,97800.22
2023-11-27T08:46:21.183Z,97794.06
2023-11-27T08:48:48.562Z,97800.81
2023-11-27T08:51:15.505Z,97793.72
2023-11-27T08:53:42.705Z,97796.59
2023-11-27T08:56:12.701Z,97789.25
2023-11-27T08:58:39.975Z,97779.44
2023-11-27T09:01:07.240Z,97776.75
2023-11-27T09:03:34.709Z,97776.59
2023-11-27T09:06:01.716Z,97775.50
2023-11-27T09:08:29.141Z,97774.53
2023-11-27T09:10:56.081Z,97785.06
2023-11-27T09:13:23.349Z,97776.34
2023-11-27T09:15:51.336Z,97778.97
2023-11-27T09:18:18.651Z,97781.31
2023-11-27T09:20:45.807Z,97780.75
2023-11-27T09:23:13.504Z,97775.56
2023-11-27T09:25:40.739Z,97770.97
2023-11-27T09:28:08.008Z,97765.53
2023-11-27T09:30:35.871Z,97765.28
2023-11-27T09:33:05.546Z,97769.50
2023-11-27T09:35:32.913Z,97762.78
2023-11-27T09:38:00.813Z,97768.69
2023-11-27T09:40:43.275Z,97761.59
2023-11-27T09:43:10.990Z,97756.19
2023-11-27T09:45:38.752Z,97754.38
2023-11-27T09:48:12.194Z,97737.66
2023-11-27T09:50:45.694Z,97736.81
2023-11-27T09:53:20.369Z,97732.31
2023-11-27T09:55:51.667Z,97728.66
2023-11-27T09:58:23.030Z,97726.66
2023-11-27T10:00:50.503Z,97726.66
2023-11-27T10:03:20.618Z,97734.34
2023-11-27T10:05:50.669Z,97727.50
2023-11-27T10:08:18.157Z,97719.59
2023-11-27T10:10:45.717Z,97721.13
2023-11-27T10:15:55.076Z,97709.50
2023-11-27T10:18:22.644Z,97708.28
2023-11-27T10:20:53.697Z,97708.09
2023-11-27T10:23:22.287Z,97693.88
2023-11-27T10:26:00.262Z,97690.22
2023-11-27T10:28:46.607Z,97697.91
2023-11-27T10:31:15.554Z,97689.47
2023-11-27T10:33:43.262Z,97674.44
2023-11-27T10:36:11.250Z,97675.56
2023-11-27T10:38:38.668Z,97683.13
2023-11-27T10:41:06.577Z,97670.06
2023-11-27T10:43:37.479Z,97676.84
2023-11-27T10:46:08.842Z,97661.94
2023-11-27T10:48:43.868Z,97661.16
2023-11-27T10:51:16.815Z,97652.47
2023-11-27T10:53:47.875Z,97656.75
2023-11-27T10:56:16.426Z,97651.41
2023-11-27T10:58:49.196Z,97647.09
2023-11-27T11:01:20.541Z,97645.38
2023-11-27T11:03:55.444Z,97641.88
2023-11-27T11:06:26.724Z,97639.16
2023-11-27T11:08:58.318Z,97628.84
2023-11-27T11:11:27.580Z,97635.63
2023-11-27T11:13:55.087Z,97632.00
2023-11-27T11:16:26.377Z,97635.81
2023-11-27T11:19:17.772Z,97627.00
2023-11-27T11:22:26.383Z,97633.56
2023-11-27T11:25:17.214Z,97627.41
2023-11-27T11:28:07.238Z,97619.41
2023-11-27T11:30:36.115Z,97613.41
2023-11-27T11:33:20.027Z,97615.88
2023-11-27T11:35:51.522Z,97610.78
2023-11-27T11:38:22.454Z,97605.28
2023-11-27T11:40:50.740Z,97592.97
2023-11-27T11:43:18.645Z,97591.91
2023-11-27T11:45:50.908Z,97588.19
2023-11-27T11:48:20.154Z,97580.88
2023-11-27T11:50:48.650Z,97579.75
2023-11-27T11:53:15.795Z,97575.16
2023-11-27T11:55:43.687Z,97568.78
2023-11-27T11:58:20.123Z,97571.31
2023-11-27T12:00:48.973Z,97571.38
2023-11-27T12:03:23.825Z,97566.16
2023-11-27T12:05:56.523Z,97561.91
2023-11-27T12:08:30.838Z,97545.19
2023-11-27T12:11:00.795Z,97539.00
2023-11-27T12:13:38.118Z,97539.00
2023-11-27T12:16:14.004Z,97537.00
2023-11-27T12:18:45.361Z,97535.16
2023-11-27T12:21:16.376Z,97542.94
2023-11-27T12:23:47.062Z,97529.66
2023-11-27T12:26:24.179Z,97530.41
2023-11-27T12:28:53.209Z,97520.78
2023-11-27T12:31:23.562Z,97523.41
2023-11-27T12:33:52.912Z,97525.53
2023-11-27T12:36:23.515Z,97518.66
2023-11-27T12:38:54.498Z,97516.88
2023-11-27T12:41:34.956Z,97511.94
2023-11-27T12:44:18.218Z,97517.97
2023-11-27T12:46:52.254Z,97514.34
2023-11-27T12:49:24.703Z,97507.34
2023-11-27T12:51:54.823Z,97504.66
2023-11-27T12:54:23.282Z,97505.97
2023-11-27T12:57:02.957Z,97492.25
2023-11-27T12:59:30.183Z,97481.19
2023-11-27T13:02:00.671Z,97482.97
2023-11-27T13:04:33.335Z,97477.75
2023-11-27T13:07:06.685Z,97473.84
2023-11-27T13:09:34.205Z,97464.00
2023-11-27T13:12:16.227Z,97460.34
2023-11-27T13:14:44.860Z,97463.66
2023-11-27T13:17:21.189Z,97456.66
2023-11-27T13:19:57.781Z,97454.81
2023-11-27T13:22:33.460Z,97451.13
2023-11-27T13:25:07.269Z,97448.22
2023-11-27T13:27:35.446Z,97440.34
2023-11-27T13:30:02.967Z,97444.56
2023-11-27T13:32:30.369Z,97444.56
2023-11-27T13:34:58.346Z,97432.22
2023-11-27T13:37:35.873Z,97432.22
2023-11-27T13:40:05.586Z,97421.88
2023-11-27T13:42:34.425Z,97415.19
2023-11-27T13:45:02.596Z,97414.16
2023-11-27T13:48:20.735Z,97407.09
2023-11-27T13:51:36.633Z,97393.84
2023-11-27T13:54:10.176Z,97391.28
2023-11-27T13:56:37.285Z,97393.00
2023-11-27T13:59:13.343Z,97392.38
2023-11-27T14:01:56.030Z,97397.06
2023-11-27T14:04:29.710Z,97376.03
2023-11-27T14:07:00.463Z,97378.03
2023-11-27T14:09:46.164Z,97370.94
2023-11-27T14:12:13.995Z,97372.56
2023-11-27T14:14:49.587Z,97367.25
2023-11-27T14:17:32.763Z,97368.03
2023-11-27T14:20:20.381Z,97357.47
2023-11-27T14:23:30.609Z,97355.63
2023-11-27T14:26:11.632Z,97348.75
2023-11-27T14:28:48.093Z,97344.53
2023-11-27T14:31:19.199Z,97344.47
2023-11-27T14:34:26.208Z,97336.66
2023-11-27T14:36:54.032Z,97331.44
2023-11-27T14:39:22.850Z,97327.88
2023-11-27T14:41:56.142Z,97322.97
2023-11-27T14:44:24.857Z,97313.47
2023-11-27T14:46:54.712Z,97307.38
2023-11-27T14:49:30.172Z,97299.38
2023-11-27T14:52:06.484Z,97290.13
2023-11-27T14:54:33.914Z,97300.91
2023-11-27T14:57:10.816Z,97288.72
2023-11-27T15:00:09.310Z,97277.63
2023-11-27T15:02:44.396Z,97274.03
2023-11-27T15:06:09.303Z,97263.41
2023-11-27T15:08:36.737Z,97255.69
2023-11-27T15:11:06.684Z,97250.81
2023-11-27T15:13:34.804Z,97245.97
2023-11-27T15:16:01.946Z,97241.72
2023-11-27T15:19:45.684Z,97239.09
2023-11-27T15:22:21.984Z,97227.09
2023-11-27T15:24:50.481Z,97224.69
2023-11-27T15:27:17.659Z,97222.91
2023-11-27T15:29:44.607Z,97217.75
2023-11-27T15:32:16.343Z,97215.22
2023-11-27T15:34:43.329Z,97215.94
2023-11-27T15:37:10.571Z,97216.84
2023-11-27T15:39:59.953Z,97210.44
2023-11-27T15:42:28.552Z,97213.75
2023-11-27T15:45:49.404Z,97218.91
2023-11-27T15:48:21.760Z,97227.66
2023-11-27T15:50:49.036Z,97225.69
2023-11-27T15:53:18.024Z,97220.44
2023-11-27T15:56:19.010Z,97215.38
2023-11-27T15:59:05.356Z,97199.66
2023-11-27T16:01:45.319Z,97205.06
2023-11-27T16:04:13.631Z,97203.22
2023-11-27T16:06:41.018Z,97203.00
2023-11-27T16:09:10.114Z,97194.53
2023-11-27T16:11:37.441Z,97180.38
2023-11-27T16:14:14.309Z,97186.16
2023-11-27T16:17:14.996Z,97168.81
2023-11-27T16:19:42.425Z,97173.03
2023-11-27T16:22:11.268Z,97169.22
2023-11-27T16:25:21.862Z,97161.16
2023-11-27T16:31:41.305Z,97136.59
2023-11-27T16:34:08.381Z,97132.13
2023-11-27T16:36:35.724Z,97132.13
2023-11-27T16:39:06.941Z,97130.53
2023-11-27T16:41:34.654Z,97129.59
2023-11-27T16:44:01.699Z,97112.66
2023-11-27T16:46:29.658Z,97112.66
2023-11-27T16:48:58.546Z,97106.66
2023-11-27T16:51:25.862Z,97101.63
2023-11-27T16:53:52.968Z,97097.09
2023-11-27T16:56:20.221Z,97090.41
2023-11-27T16:58:47.220Z,97083.25
2023-11-27T17:01:17.337Z,97094.50
2023-11-27T17:03:47.741Z,97083.88
2023-11-27T17:06:15.233Z,97079.53
2023-11-27T17:08:42.365Z,97077.66
2023-11-27T17:11:09.569Z,97066.81
2023-11-27T17:13:36.548Z,97065.72
2023-11-27T17:16:05.121Z,97063.25
2023-11-27T17:18:32.635Z,97059.03
2023-11-27T17:21:01.115Z,97051.88
2023-11-27T17:23:28.515Z,97038.88
2023-11-27T17:25:56.400Z,97037.00
2023-11-27T17:28:25.759Z,97031.72
2023-11-27T17:30:53.623Z,97037.22
2023-11-27T17:33:20.730Z,97027.78
2023-11-27T17:35:48.201Z,97022.09
2023-11-27T17:38:15.205Z,97015.22
2023-11-27T17:40:43.193Z,97017.28
2023-11-27T17:43:13.446Z,97013.06
2023-11-27T17:45:43.300Z,96999.53
2023-11-27T17:48:10.413Z,96998.69
2023-11-27T17:50:37.724Z,97004.97
2023-11-27T17:53:05.821Z,96996.13
2023-11-27T17:55:39.507Z,96993.81
2023-11-27T17:58:14.435Z,96994.97
2023-11-27T18:00:44.590Z,96980.75
2023-11-27T18:03:11.735Z,96986.34
2023-11-27T18:05:39.076Z,96978.00
2023-11-27T18:08:06.159Z,96980.31
2023-11-27T18:10:34.234Z,96977.47
2023-11-27T18:13:05.556Z,96971.34
2023-11-27T18:15:33.698Z,96976.50
2023-11-27T18:18:01.401Z,96961.28
2023-11-27T18:20:31.109Z,96959.44
2023-11-27T18:22:58.145Z,96954.97
2023-11-27T18:25:25.536Z,96955.91
2023-11-27T18:27:56.705Z,96952.81
2023-11-27T18:30:24.497Z,96953.88
2023-11-27T18:36:36.186Z,96947.06
2023-11-27T18:39:57.199Z,96938.59
2023-11-27T18:43:01.382Z,96931.13
2023-11-27T18:45:29.467Z,96924.91
2023-11-27T18:47:57.842Z,96924.75
2023-11-27T18:50:25.854Z,96918.38
2023-11-27T18:53:11.653Z,96921.69
2023-11-27T18:55:56.010Z,96914.06
2023-11-27T18:58:23.285Z,96906.44
2023-11-27T19:00:50.673Z,96909.28
2023-11-27T19:04:16.429Z,96905.75
2023-11-27T19:06:47.391Z,96898.81
2023-11-27T19:09:43.091Z,96895.09
2023-11-27T19:12:19.385Z,96892.69
2023-11-27T19:14:52.224Z,96886.50
2023-11-27T19:17:22.102Z,96884.22
2023-11-27T19:19:50.217Z,96884.94
2023-11-27T19:22:19.280Z,96883.34
2023-11-27T19:25:37.030Z,96868.94
2023-11-27T19:28:04.554Z,96859.97
2023-11-27T19:30:31.577Z,96855.50
2023-11-27T19:32:58.905Z,96849.53
2023-11-27T19:35:25.925Z,96849.66
2023-11-27T19:40:51.122Z,96835.97
2023-11-27T19:43:18.984Z,96831.56
2023-11-27T19:45:46.874Z,96825.66
2023-11-27T19:48:14.438Z,96829.59
2023-11-27T19:50:41.616Z,96820.78
2023-11-27T19:53:10.215Z,96813.47
2023-11-27T19:55:38.433Z,96804.88
2023-11-27T19:58:06.034Z,96803.59
2023-11-27T20:00:56.950Z,96797.41
2023-11-27T20:03:42.673Z,96784.09
2023-11-27T20:06:10.262Z,96780.78
2023-11-27T20:08:37.591Z,96770.28
2023-11-27T20:11:04.733Z,96766.91
2023-11-27T20:13:32.122Z,96767.06
2023-11-27T20:16:00.090Z,96755.25
2023-11-27T20:18:51.696Z,96756.28
2023-11-27T20:21:18.777Z,96750.84
2023-11-27T20:23:58.556Z,96748.53
2023-11-27T20:26:49.731Z,96744.44
2023-11-27T20:29:26.517Z,96743.28
2023-11-27T20:31:53.675Z,96736.34
2023-11-27T20:34:21.010Z,96729.41
2023-11-27T20:36:49.170Z,96726.81
2023-11-27T20:39:16.479Z,96729.41
2023-11-27T20:41:44.459Z,96710.41
2023-11-27T20:44:12.110Z,96712.88
2023-11-27T20:46:39.954Z,96707.50
2023-11-27T20:49:07.447Z,96702.38
2023-11-27T20:51:34.457Z,96702.50
2023-11-27T20:54:02.221Z,96694.69
2023-11-27T20:56:29.492Z,96695.66
2023-11-27T20:58:59.225Z,96687.84
2023-11-27T21:01:28.592Z,96690.31
2023-11-27T21:03:56.900Z,96686.66
2023-11-27T21:06:26.278Z,96675.50
2023-11-27T21:08:54.504Z,96669.59
2023-11-27T21:11:24.808Z,96668.75
2023-11-27T21:13:54.047Z,96665.38
2023-11-27T21:16:21.848Z,96656.81
2023-11-27T21:18:50.303Z,96649.06
2023-11-27T21:21:17.640Z,96658.47
2023-11-27T21:23:44.945Z,96649.69
2023-11-27T21:26:15.337Z,96645.28
2023-11-27T21:28:43.195Z,96639.31
2023-11-27T21:31:11.070Z,96639.59
2023-11-27T21:33:38.593Z,96635.09
2023-11-27T21:36:05.990Z,96630.66
2023-11-27T21:38:33.339Z,96619.44
2023-11-27T21:41:00.645Z,96628.88
2023-11-27T21:43:28.051Z,96630.41
2023-11-27T21:45:55.196Z,96624.44
2023-11-27T21:48:23.403Z,96616.69
2023-11-27T21:50:50.726Z,96615.03
2023-11-27T21:53:18.689Z,96617.78
2023-11-27T21:55:46.081Z,96611.69
2023-11-27T21:58:13.479Z,96606.72
2023-11-27T22:00:40.589Z,96607.34
2023-11-27T22:03:08.335Z,96601.50
2023-11-27T22:05:35.673Z,96596.38
2023-11-27T22:08:03.083Z,96599.97
2023-11-27T22:10:31.912Z,96603.44
2023-11-27T22:13:00.397Z,96593.63
2023-11-27T22:15:27.470Z,96585.81
2023-11-27T22:17:54.944Z,96587.53
2023-11-27T22:20:22.072Z,96590.09
2023-11-27T22:22:49.411Z,96584.78
2023-11-27T22:25:16.638Z,96582.03
2023-11-27T22:27:43.831Z,96585.47
2023-11-27T22:30:11.907Z,96570.00
2023-11-27T22:32:39.474Z,96567.38
2023-11-27T22:35:07.320Z,96565.72
2023-11-27T22:37:36.831Z,96557.28
2023-11-27T22:40:06.203Z,96556.53
2023-11-27T22:42:33.379Z,96557.66
2023-11-27T22:45:00.761Z,96550.84
2023-11-27T22:47:28.146Z,96541.47
2023-11-27T22:49:55.288Z,96533.78
2023-11-27T22:52:22.648Z,96527.59
2023-11-27T22:54:49.645Z,96520.88
2023-11-27T22:57:16.778Z,96532.19
2023-11-27T22:59:43.889Z,96527.00
2023-11-27T23:02:12.160Z,96522.63
2023-11-27T23:04:40.976Z,96519.16
2023-11-27T23:07:08.564Z,96517.47
2023-11-27T23:09:35.625Z,96516.78
2023-11-27T23:12:03.383Z,96515.72
2023-11-27T23:14:30.302Z,96510.44
2023-11-27T23:16:57.970Z,96506.84
2023-11-27T23:19:25.012Z,96496.41
2023-11-27T23:21:52.741Z,96486.06
2023-11-27T23:24:26.485Z,96479.94
2023-11-27T23:26:55.353Z,96474.94
2023-11-27T23:29:23.347Z,96468.84
2023-11-27T23:31:54.405Z,96468.84
2023-11-27T23:34:24.344Z,96461.56
2023-11-27T23:36:52.527Z,96460.94
2023-11-27T23:39:19.572Z,96461.63
2023-11-27T23:41:46.940Z,96461.56
2023-11-27T23:44:13.934Z,96458.16
2023-11-27T23:46:42.264Z,96452.72
2023-11-27T23:49:09.489Z,96450.19
2023-11-27T23:51:36.995Z,96449.50
2023-11-27T23:54:04.126Z,96448.75
2023-11-27T23:56:31.479Z,96434.16
2023-11-27T23:58:58.475Z,96427.44
